Skip to main content

Cabeceiras de Basto

ID 1210630 · 41.5333, -7.9667 map

Latest reading · 2026-05-09 19:00 (Europe/Lisbon)

Temperature
13.5 °C
Humidity
100 %
Pressure
Precipitation
0.1 mm
Radiation
296 W/m²
Wind speed
3.2 km/h
Wind direction
SW · South-west

24-hour history

Time (Europe/Lisbon) Temp Humidity Pressure Rain Wind Dir
2026-05-09 19:00 13.5 °C 100 % 0.1 mm 3.2 km/h SW
2026-05-09 18:00 13.3 °C 98 % 0.4 mm 1.8 km/h S
2026-05-09 17:00 13.1 °C 98 % 4.9 mm 4.3 km/h NE
2026-05-09 16:00 15.8 °C 81 % 0.3 mm 4.7 km/h W
2026-05-09 15:00 17.5 °C 60 % 0.2 mm 9.0 km/h E
2026-05-09 14:00 16.7 °C 60 % 0.0 mm 5.4 km/h E
2026-05-09 13:00 15.4 °C 70 % 0.1 mm 5.8 km/h SE
2026-05-09 12:00 15.2 °C 66 % 0.0 mm 7.9 km/h E
2026-05-09 11:00 15.7 °C 63 % 0.0 mm 9.0 km/h E
2026-05-09 10:00 15.4 °C 66 % 0.0 mm 9.0 km/h NE
2026-05-09 05:00 12.5 °C 85 % 0.0 mm 4.0 km/h SW
2026-05-09 04:00 12.6 °C 85 % 0.0 mm 2.9 km/h W
2026-05-09 03:00 13.1 °C 83 % 0.0 mm 2.5 km/h SW
2026-05-09 02:00 14.0 °C 72 % 0.0 mm 5.0 km/h NW
2026-05-09 01:00 12.9 °C 81 % 0.0 mm 1.8 km/h SE
2026-05-09 00:00 11.2 °C 95 % 0.0 mm 3.2 km/h NW
2026-05-08 23:00 11.3 °C 93 % 0.0 mm 2.5 km/h SW
2026-05-08 22:00 11.9 °C 89 % 0.0 mm 4.3 km/h W
2026-05-08 21:00 13.7 °C 82 % 0.0 mm 4.3 km/h W
2026-05-08 20:00 16.5 °C 59 % 0.0 mm 2.2 km/h SW